sensor_id;sensor_type;location;lat;lon;timestamp;P1;durP1;ratioP1;P2;durP2;ratioP2
15553;SDS011;7878;44.632;10.942;2024-02-04T00:01:02;40.60;;;24.83;;
15553;SDS011;7878;44.632;10.942;2024-02-04T00:03:28;36.83;;;23.23;;
15553;SDS011;7878;44.632;10.942;2024-02-04T00:05:54;39.37;;;22.73;;
15553;SDS011;7878;44.632;10.942;2024-02-04T00:08:21;35.13;;;23.20;;
15553;SDS011;7878;44.632;10.942;2024-02-04T00:10:47;33.57;;;21.77;;
15553;SDS011;7878;44.632;10.942;2024-02-04T00:13:12;35.87;;;23.27;;
15553;SDS011;7878;44.632;10.942;2024-02-04T00:15:38;36.03;;;22.20;;
15553;SDS011;7878;44.632;10.942;2024-02-04T00:18:04;46.03;;;23.40;;
15553;SDS011;7878;44.632;10.942;2024-02-04T00:20:29;45.10;;;24.43;;
15553;SDS011;7878;44.632;10.942;2024-02-04T00:22:57;38.67;;;23.47;;
15553;SDS011;7878;44.632;10.942;2024-02-04T00:25:23;38.03;;;23.60;;
15553;SDS011;7878;44.632;10.942;2024-02-04T00:27:49;37.40;;;23.57;;
15553;SDS011;7878;44.632;10.942;2024-02-04T00:30:15;42.10;;;23.20;;
15553;SDS011;7878;44.632;10.942;2024-02-04T00:32:40;35.47;;;22.40;;
15553;SDS011;7878;44.632;10.942;2024-02-04T00:35:06;38.00;;;23.60;;
15553;SDS011;7878;44.632;10.942;2024-02-04T00:37:32;38.27;;;23.50;;
15553;SDS011;7878;44.632;10.942;2024-02-04T00:39:58;40.87;;;22.73;;
15553;SDS011;7878;44.632;10.942;2024-02-04T00:42:23;39.03;;;23.97;;
15553;SDS011;7878;44.632;10.942;2024-02-04T00:44:49;39.70;;;23.63;;
15553;SDS011;7878;44.632;10.942;2024-02-04T00:47:15;41.93;;;23.57;;
15553;SDS011;7878;44.632;10.942;2024-02-04T00:49:40;36.83;;;23.17;;
15553;SDS011;7878;44.632;10.942;2024-02-04T00:52:06;42.93;;;24.67;;
15553;SDS011;7878;44.632;10.942;2024-02-04T00:54:32;40.57;;;24.20;;
15553;SDS011;7878;44.632;10.942;2024-02-04T00:56:58;42.87;;;23.87;;
15553;SDS011;7878;44.632;10.942;2024-02-04T00:59:25;41.07;;;24.63;;
15553;SDS011;7878;44.632;10.942;2024-02-04T01:01:50;45.43;;;25.30;;
15553;SDS011;7878;44.632;10.942;2024-02-04T01:04:16;43.27;;;24.63;;
15553;SDS011;7878;44.632;10.942;2024-02-04T01:06:43;38.13;;;25.07;;
15553;SDS011;7878;44.632;10.942;2024-02-04T01:09:08;42.90;;;25.77;;
15553;SDS011;7878;44.632;10.942;2024-02-04T01:11:34;37.60;;;24.80;;
15553;SDS011;7878;44.632;10.942;2024-02-04T01:14:00;44.30;;;25.40;;
15553;SDS011;7878;44.632;10.942;2024-02-04T01:16:28;39.53;;;24.83;;
15553;SDS011;7878;44.632;10.942;2024-02-04T01:18:54;37.20;;;23.33;;
15553;SDS011;7878;44.632;10.942;2024-02-04T01:21:20;38.63;;;22.47;;
15553;SDS011;7878;44.632;10.942;2024-02-04T01:23:45;41.90;;;23.60;;
15553;SDS011;7878;44.632;10.942;2024-02-04T01:26:11;33.63;;;21.37;;
15553;SDS011;7878;44.632;10.942;2024-02-04T01:28:37;34.73;;;21.57;;
15553;SDS011;7878;44.632;10.942;2024-02-04T01:31:02;36.00;;;22.37;;
15553;SDS011;7878;44.632;10.942;2024-02-04T01:33:28;37.50;;;23.00;;
15553;SDS011;7878;44.632;10.942;2024-02-04T01:35:54;35.00;;;20.83;;
15553;SDS011;7878;44.632;10.942;2024-02-04T01:38:20;34.23;;;21.97;;
15553;SDS011;7878;44.632;10.942;2024-02-04T01:40:45;33.57;;;21.37;;
15553;SDS011;7878;44.632;10.942;2024-02-04T01:43:11;38.53;;;22.20;;
15553;SDS011;7878;44.632;10.942;2024-02-04T01:45:37;37.13;;;22.67;;
15553;SDS011;7878;44.632;10.942;2024-02-04T01:48:03;37.40;;;21.60;;
15553;SDS011;7878;44.632;10.942;2024-02-04T01:50:30;33.63;;;20.97;;
15553;SDS011;7878;44.632;10.942;2024-02-04T01:52:56;42.40;;;21.83;;
15553;SDS011;7878;44.632;10.942;2024-02-04T01:55:22;36.93;;;20.67;;
15553;SDS011;7878;44.632;10.942;2024-02-04T01:57:48;34.63;;;21.33;;
15553;SDS011;7878;44.632;10.942;2024-02-04T02:00:15;27.43;;;18.43;;
15553;SDS011;7878;44.632;10.942;2024-02-04T02:02:41;38.37;;;17.50;;
15553;SDS011;7878;44.632;10.942;2024-02-04T02:05:07;27.60;;;17.30;;
15553;SDS011;7878;44.632;10.942;2024-02-04T02:07:34;28.17;;;17.90;;
15553;SDS011;7878;44.632;10.942;2024-02-04T02:09:59;27.20;;;17.30;;
15553;SDS011;7878;44.632;10.942;2024-02-04T02:12:26;27.93;;;16.70;;
15553;SDS011;7878;44.632;10.942;2024-02-04T02:14:58;25.60;;;16.27;;
15553;SDS011;7878;44.632;10.942;2024-02-04T02:17:32;24.27;;;15.30;;
15553;SDS011;7878;44.632;10.942;2024-02-04T02:23:07;26.87;;;16.23;;
15553;SDS011;7878;44.632;10.942;2024-02-04T02:25:38;29.07;;;16.50;;
15553;SDS011;7878;44.632;10.942;2024-02-04T02:28:04;25.00;;;16.40;;
15553;SDS011;7878;44.632;10.942;2024-02-04T02:30:30;27.17;;;15.97;;
15553;SDS011;7878;44.632;10.942;2024-02-04T02:32:56;24.17;;;16.00;;
15553;SDS011;7878;44.632;10.942;2024-02-04T02:35:22;23.27;;;15.73;;
15553;SDS011;7878;44.632;10.942;2024-02-04T02:42:55;27.43;;;15.60;;
15553;SDS011;7878;44.632;10.942;2024-02-04T02:45:23;25.43;;;15.97;;
15553;SDS011;7878;44.632;10.942;2024-02-04T02:47:50;23.93;;;16.20;;
15553;SDS011;7878;44.632;10.942;2024-02-04T02:50:17;24.90;;;15.73;;
15553;SDS011;7878;44.632;10.942;2024-02-04T02:52:43;30.03;;;16.13;;
15553;SDS011;7878;44.632;10.942;2024-02-04T02:55:09;25.87;;;15.57;;
15553;SDS011;7878;44.632;10.942;2024-02-04T02:57:35;25.47;;;16.63;;
15553;SDS011;7878;44.632;10.942;2024-02-04T03:00:01;24.87;;;16.23;;
15553;SDS011;7878;44.632;10.942;2024-02-04T03:02:28;25.57;;;17.43;;
15553;SDS011;7878;44.632;10.942;2024-02-04T03:04:54;23.67;;;16.20;;
15553;SDS011;7878;44.632;10.942;2024-02-04T03:07:19;28.13;;;16.57;;
15553;SDS011;7878;44.632;10.942;2024-02-04T03:09:45;25.67;;;16.23;;
15553;SDS011;7878;44.632;10.942;2024-02-04T03:12:11;25.57;;;15.93;;
15553;SDS011;7878;44.632;10.942;2024-02-04T03:14:36;26.93;;;17.43;;
15553;SDS011;7878;44.632;10.942;2024-02-04T03:17:02;27.23;;;17.57;;
15553;SDS011;7878;44.632;10.942;2024-02-04T03:19:28;27.23;;;16.17;;
15553;SDS011;7878;44.632;10.942;2024-02-04T03:21:53;23.13;;;16.13;;
15553;SDS011;7878;44.632;10.942;2024-02-04T03:24:19;29.50;;;18.23;;
15553;SDS011;7878;44.632;10.942;2024-02-04T03:26:45;29.47;;;17.80;;
15553;SDS011;7878;44.632;10.942;2024-02-04T03:29:10;26.90;;;16.53;;
15553;SDS011;7878;44.632;10.942;2024-02-04T03:31:36;27.00;;;16.77;;
15553;SDS011;7878;44.632;10.942;2024-02-04T03:34:02;26.97;;;17.90;;
15553;SDS011;7878;44.632;10.942;2024-02-04T03:36:27;25.90;;;17.10;;
15553;SDS011;7878;44.632;10.942;2024-02-04T03:38:53;29.20;;;16.87;;
15553;SDS011;7878;44.632;10.942;2024-02-04T03:41:18;34.00;;;18.97;;
15553;SDS011;7878;44.632;10.942;2024-02-04T03:43:44;30.20;;;18.23;;
15553;SDS011;7878;44.632;10.942;2024-02-04T03:46:13;30.33;;;19.27;;
15553;SDS011;7878;44.632;10.942;2024-02-04T03:48:42;31.30;;;20.37;;
15553;SDS011;7878;44.632;10.942;2024-02-04T03:51:14;31.00;;;18.53;;
15553;SDS011;7878;44.632;10.942;2024-02-04T03:53:40;29.97;;;18.83;;
15553;SDS011;7878;44.632;10.942;2024-02-04T03:56:06;35.03;;;18.90;;
15553;SDS011;7878;44.632;10.942;2024-02-04T03:58:32;32.33;;;20.50;;
15553;SDS011;7878;44.632;10.942;2024-02-04T04:00:58;32.03;;;21.00;;
15553;SDS011;7878;44.632;10.942;2024-02-04T04:03:25;28.53;;;19.97;;
15553;SDS011;7878;44.632;10.942;2024-02-04T04:05:51;29.13;;;18.60;;
15553;SDS011;7878;44.632;10.942;2024-02-04T04:08:18;28.00;;;17.87;;
15553;SDS011;7878;44.632;10.942;2024-02-04T04:10:44;27.53;;;19.17;;
15553;SDS011;7878;44.632;10.942;2024-02-04T04:13:10;28.60;;;17.50;;
15553;SDS011;7878;44.632;10.942;2024-02-04T04:15:37;30.10;;;19.33;;
15553;SDS011;7878;44.632;10.942;2024-02-04T04:18:03;31.30;;;18.57;;
15553;SDS011;7878;44.632;10.942;2024-02-04T04:20:29;31.50;;;18.63;;
15553;SDS011;7878;44.632;10.942;2024-02-04T04:22:54;30.13;;;18.80;;
15553;SDS011;7878;44.632;10.942;2024-02-04T04:25:20;29.77;;;17.63;;
15553;SDS011;7878;44.632;10.942;2024-02-04T04:27:46;31.10;;;18.63;;
15553;SDS011;7878;44.632;10.942;2024-02-04T04:30:11;35.27;;;19.07;;
15553;SDS011;7878;44.632;10.942;2024-02-04T04:32:37;31.87;;;18.60;;
15553;SDS011;7878;44.632;10.942;2024-02-04T04:35:03;34.97;;;19.53;;
15553;SDS011;7878;44.632;10.942;2024-02-04T04:37:29;27.00;;;17.47;;
15553;SDS011;7878;44.632;10.942;2024-02-04T04:39:55;32.67;;;17.93;;
15553;SDS011;7878;44.632;10.942;2024-02-04T04:42:20;29.07;;;17.77;;
15553;SDS011;7878;44.632;10.942;2024-02-04T04:44:46;29.73;;;18.40;;
15553;SDS011;7878;44.632;10.942;2024-02-04T04:47:12;28.40;;;19.10;;
15553;SDS011;7878;44.632;10.942;2024-02-04T04:49:39;27.67;;;18.83;;
15553;SDS011;7878;44.632;10.942;2024-02-04T04:52:05;28.27;;;17.73;;
15553;SDS011;7878;44.632;10.942;2024-02-04T04:54:31;31.43;;;19.17;;
15553;SDS011;7878;44.632;10.942;2024-02-04T04:56:56;33.93;;;18.27;;
15553;SDS011;7878;44.632;10.942;2024-02-04T04:59:22;29.00;;;18.53;;
15553;SDS011;7878;44.632;10.942;2024-02-04T05:01:48;30.17;;;17.47;;
15553;SDS011;7878;44.632;10.942;2024-02-04T05:04:15;31.60;;;18.10;;
15553;SDS011;7878;44.632;10.942;2024-02-04T05:06:41;28.53;;;18.13;;
15553;SDS011;7878;44.632;10.942;2024-02-04T05:09:07;33.07;;;18.77;;
15553;SDS011;7878;44.632;10.942;2024-02-04T05:11:32;31.17;;;19.30;;
15553;SDS011;7878;44.632;10.942;2024-02-04T05:13:58;27.47;;;17.73;;
15553;SDS011;7878;44.632;10.942;2024-02-04T05:16:25;30.43;;;19.83;;
15553;SDS011;7878;44.632;10.942;2024-02-04T05:18:51;35.30;;;19.60;;
15553;SDS011;7878;44.632;10.942;2024-02-04T05:21:16;37.87;;;21.40;;
15553;SDS011;7878;44.632;10.942;2024-02-04T05:23:42;39.33;;;21.03;;
15553;SDS011;7878;44.632;10.942;2024-02-04T05:26:08;31.47;;;20.27;;
15553;SDS011;7878;44.632;10.942;2024-02-04T05:28:33;29.60;;;18.23;;
15553;SDS011;7878;44.632;10.942;2024-02-04T05:31:01;28.30;;;19.50;;
15553;SDS011;7878;44.632;10.942;2024-02-04T05:33:27;26.30;;;18.17;;
15553;SDS011;7878;44.632;10.942;2024-02-04T05:35:53;27.03;;;18.10;;
15553;SDS011;7878;44.632;10.942;2024-02-04T05:38:19;30.17;;;18.23;;
15553;SDS011;7878;44.632;10.942;2024-02-04T05:40:45;30.77;;;19.37;;
15553;SDS011;7878;44.632;10.942;2024-02-04T05:43:11;29.80;;;20.00;;
15553;SDS011;7878;44.632;10.942;2024-02-04T05:45:37;35.90;;;18.53;;
15553;SDS011;7878;44.632;10.942;2024-02-04T05:48:06;29.77;;;18.60;;
15553;SDS011;7878;44.632;10.942;2024-02-04T05:50:32;30.07;;;18.90;;
15553;SDS011;7878;44.632;10.942;2024-02-04T05:52:58;26.23;;;18.47;;
15553;SDS011;7878;44.632;10.942;2024-02-04T05:55:24;26.63;;;18.03;;
15553;SDS011;7878;44.632;10.942;2024-02-04T05:57:49;28.53;;;18.90;;
15553;SDS011;7878;44.632;10.942;2024-02-04T06:00:15;29.67;;;18.33;;
15553;SDS011;7878;44.632;10.942;2024-02-04T06:02:41;29.53;;;17.83;;
15553;SDS011;7878;44.632;10.942;2024-02-04T06:05:10;26.40;;;17.67;;
15553;SDS011;7878;44.632;10.942;2024-02-04T06:07:36;27.90;;;17.87;;
15553;SDS011;7878;44.632;10.942;2024-02-04T06:10:02;28.43;;;17.83;;
15553;SDS011;7878;44.632;10.942;2024-02-04T06:12:29;26.70;;;16.83;;
15553;SDS011;7878;44.632;10.942;2024-02-04T06:14:55;27.43;;;16.50;;
15553;SDS011;7878;44.632;10.942;2024-02-04T06:17:20;26.80;;;16.40;;
15553;SDS011;7878;44.632;10.942;2024-02-04T06:19:46;28.20;;;15.57;;
15553;SDS011;7878;44.632;10.942;2024-02-04T06:22:12;29.80;;;16.17;;
15553;SDS011;7878;44.632;10.942;2024-02-04T06:24:38;24.87;;;16.17;;
15553;SDS011;7878;44.632;10.942;2024-02-04T06:27:05;23.63;;;16.17;;
15553;SDS011;7878;44.632;10.942;2024-02-04T06:29:35;24.63;;;16.30;;
15553;SDS011;7878;44.632;10.942;2024-02-04T06:32:02;24.97;;;17.07;;
15553;SDS011;7878;44.632;10.942;2024-02-04T06:34:28;26.57;;;15.97;;
15553;SDS011;7878;44.632;10.942;2024-02-04T06:36:54;24.63;;;16.07;;
15553;SDS011;7878;44.632;10.942;2024-02-04T06:39:19;26.97;;;15.70;;
15553;SDS011;7878;44.632;10.942;2024-02-04T06:41:47;28.93;;;16.17;;
15553;SDS011;7878;44.632;10.942;2024-02-04T06:44:13;28.47;;;16.23;;
15553;SDS011;7878;44.632;10.942;2024-02-04T06:46:38;25.50;;;15.67;;
15553;SDS011;7878;44.632;10.942;2024-02-04T06:49:04;24.27;;;16.33;;
15553;SDS011;7878;44.632;10.942;2024-02-04T06:51:30;26.70;;;16.67;;
15553;SDS011;7878;44.632;10.942;2024-02-04T06:53:55;30.00;;;16.43;;
15553;SDS011;7878;44.632;10.942;2024-02-04T06:56:21;24.67;;;15.50;;
15553;SDS011;7878;44.632;10.942;2024-02-04T06:58:47;34.50;;;16.70;;
15553;SDS011;7878;44.632;10.942;2024-02-04T07:01:12;31.30;;;17.77;;
15553;SDS011;7878;44.632;10.942;2024-02-04T07:03:38;27.03;;;17.30;;
15553;SDS011;7878;44.632;10.942;2024-02-04T07:06:04;26.20;;;16.87;;
15553;SDS011;7878;44.632;10.942;2024-02-04T07:08:30;27.80;;;17.13;;
15553;SDS011;7878;44.632;10.942;2024-02-04T07:10:55;25.73;;;17.60;;
15553;SDS011;7878;44.632;10.942;2024-02-04T07:13:22;28.83;;;17.53;;
15553;SDS011;7878;44.632;10.942;2024-02-04T07:15:48;28.50;;;17.17;;
15553;SDS011;7878;44.632;10.942;2024-02-04T07:18:14;26.07;;;16.50;;
15553;SDS011;7878;44.632;10.942;2024-02-04T07:20:39;26.83;;;16.60;;
15553;SDS011;7878;44.632;10.942;2024-02-04T07:23:05;32.27;;;16.03;;
15553;SDS011;7878;44.632;10.942;2024-02-04T07:25:31;24.83;;;15.83;;
15553;SDS011;7878;44.632;10.942;2024-02-04T07:27:57;22.53;;;15.63;;
15553;SDS011;7878;44.632;10.942;2024-02-04T07:30:23;24.60;;;15.53;;
15553;SDS011;7878;44.632;10.942;2024-02-04T07:32:49;24.97;;;16.80;;
15553;SDS011;7878;44.632;10.942;2024-02-04T07:35:15;24.43;;;16.07;;
15553;SDS011;7878;44.632;10.942;2024-02-04T07:37:41;24.30;;;17.47;;
15553;SDS011;7878;44.632;10.942;2024-02-04T07:40:07;22.23;;;16.00;;
15553;SDS011;7878;44.632;10.942;2024-02-04T07:42:33;25.27;;;16.50;;
15553;SDS011;7878;44.632;10.942;2024-02-04T07:44:59;31.03;;;17.30;;
15553;SDS011;7878;44.632;10.942;2024-02-04T07:47:24;28.53;;;16.70;;
15553;SDS011;7878;44.632;10.942;2024-02-04T07:49:50;26.20;;;16.43;;
15553;SDS011;7878;44.632;10.942;2024-02-04T07:52:16;25.67;;;17.90;;
15553;SDS011;7878;44.632;10.942;2024-02-04T07:54:42;32.90;;;18.07;;
15553;SDS011;7878;44.632;10.942;2024-02-04T07:57:11;26.23;;;16.90;;
15553;SDS011;7878;44.632;10.942;2024-02-04T07:59:37;25.93;;;16.17;;
15553;SDS011;7878;44.632;10.942;2024-02-04T08:02:02;22.70;;;15.07;;
15553;SDS011;7878;44.632;10.942;2024-02-04T08:04:28;25.13;;;15.67;;
15553;SDS011;7878;44.632;10.942;2024-02-04T08:06:54;21.20;;;14.00;;
15553;SDS011;7878;44.632;10.942;2024-02-04T08:09:19;23.70;;;13.73;;
15553;SDS011;7878;44.632;10.942;2024-02-04T08:11:45;21.07;;;14.53;;
15553;SDS011;7878;44.632;10.942;2024-02-04T08:14:11;24.33;;;14.67;;
15553;SDS011;7878;44.632;10.942;2024-02-04T08:16:39;23.50;;;14.20;;
15553;SDS011;7878;44.632;10.942;2024-02-04T08:19:04;29.87;;;15.60;;
15553;SDS011;7878;44.632;10.942;2024-02-04T08:21:31;19.63;;;14.47;;
15553;SDS011;7878;44.632;10.942;2024-02-04T08:23:57;23.97;;;14.33;;
15553;SDS011;7878;44.632;10.942;2024-02-04T08:26:23;20.27;;;13.70;;
15553;SDS011;7878;44.632;10.942;2024-02-04T08:28:49;20.23;;;13.03;;
15553;SDS011;7878;44.632;10.942;2024-02-04T08:31:15;20.10;;;11.93;;
15553;SDS011;7878;44.632;10.942;2024-02-04T08:33:41;17.13;;;12.33;;
15553;SDS011;7878;44.632;10.942;2024-02-04T08:36:07;19.67;;;12.17;;
15553;SDS011;7878;44.632;10.942;2024-02-04T08:38:35;19.73;;;11.90;;
15553;SDS011;7878;44.632;10.942;2024-02-04T08:41:02;18.13;;;12.37;;
15553;SDS011;7878;44.632;10.942;2024-02-04T08:43:28;23.90;;;12.43;;
15553;SDS011;7878;44.632;10.942;2024-02-04T08:45:54;15.13;;;12.00;;
15553;SDS011;7878;44.632;10.942;2024-02-04T08:48:19;14.80;;;11.53;;
15553;SDS011;7878;44.632;10.942;2024-02-04T08:50:45;19.13;;;13.00;;
15553;SDS011;7878;44.632;10.942;2024-02-04T08:53:11;18.20;;;12.53;;
15553;SDS011;7878;44.632;10.942;2024-02-04T08:55:37;20.13;;;13.47;;
15553;SDS011;7878;44.632;10.942;2024-02-04T08:58:02;21.03;;;14.17;;
15553;SDS011;7878;44.632;10.942;2024-02-04T09:00:28;20.33;;;12.83;;
15553;SDS011;7878;44.632;10.942;2024-02-04T09:02:54;22.80;;;14.18;;
15553;SDS011;7878;44.632;10.942;2024-02-04T09:05:19;21.70;;;13.98;;
15553;SDS011;7878;44.632;10.942;2024-02-04T09:07:45;30.10;;;15.18;;
15553;SDS011;7878;44.632;10.942;2024-02-04T09:10:11;16.17;;;13.25;;
15553;SDS011;7878;44.632;10.942;2024-02-04T09:12:37;22.45;;;15.13;;
15553;SDS011;7878;44.632;10.942;2024-02-04T09:15:04;18.65;;;15.13;;
15553;SDS011;7878;44.632;10.942;2024-02-04T09:17:30;23.13;;;14.90;;
15553;SDS011;7878;44.632;10.942;2024-02-04T09:19:58;25.48;;;16.15;;
15553;SDS011;7878;44.632;10.942;2024-02-04T09:22:24;22.20;;;16.70;;
15553;SDS011;7878;44.632;10.942;2024-02-04T09:24:50;32.88;;;17.92;;
15553;SDS011;7878;44.632;10.942;2024-02-04T09:27:15;24.20;;;17.15;;
15553;SDS011;7878;44.632;10.942;2024-02-04T09:29:41;33.47;;;20.48;;
15553;SDS011;7878;44.632;10.942;2024-02-04T09:32:07;28.20;;;22.08;;
15553;SDS011;7878;44.632;10.942;2024-02-04T09:34:33;29.77;;;22.23;;
15553;SDS011;7878;44.632;10.942;2024-02-04T09:36:58;32.80;;;21.95;;
15553;SDS011;7878;44.632;10.942;2024-02-04T09:39:24;35.70;;;23.00;;
15553;SDS011;7878;44.632;10.942;2024-02-04T09:41:50;33.65;;;23.50;;
15553;SDS011;7878;44.632;10.942;2024-02-04T09:44:16;31.43;;;23.77;;
15553;SDS011;7878;44.632;10.942;2024-02-04T09:46:43;37.77;;;24.87;;
15553;SDS011;7878;44.632;10.942;2024-02-04T09:49:08;34.13;;;24.88;;
15553;SDS011;7878;44.632;10.942;2024-02-04T09:51:34;40.00;;;24.77;;
15553;SDS011;7878;44.632;10.942;2024-02-04T09:54:02;33.90;;;24.80;;
15553;SDS011;7878;44.632;10.942;2024-02-04T09:56:31;35.53;;;24.93;;
15553;SDS011;7878;44.632;10.942;2024-02-04T09:58:59;40.80;;;25.77;;
15553;SDS011;7878;44.632;10.942;2024-02-04T10:01:25;34.40;;;24.90;;
15553;SDS011;7878;44.632;10.942;2024-02-04T10:03:51;34.30;;;24.27;;
15553;SDS011;7878;44.632;10.942;2024-02-04T10:06:17;39.00;;;24.83;;
15553;SDS011;7878;44.632;10.942;2024-02-04T10:08:43;38.60;;;26.30;;
15553;SDS011;7878;44.632;10.942;2024-02-04T10:11:11;34.93;;;25.13;;
15553;SDS011;7878;44.632;10.942;2024-02-04T10:13:46;38.73;;;26.03;;
15553;SDS011;7878;44.632;10.942;2024-02-04T10:16:13;36.70;;;26.87;;
15553;SDS011;7878;44.632;10.942;2024-02-04T10:18:42;36.93;;;25.93;;
15553;SDS011;7878;44.632;10.942;2024-02-04T10:21:18;41.23;;;24.63;;
15553;SDS011;7878;44.632;10.942;2024-02-04T10:23:48;34.27;;;25.80;;
15553;SDS011;7878;44.632;10.942;2024-02-04T10:26:14;35.53;;;25.93;;
15553;SDS011;7878;44.632;10.942;2024-02-04T10:28:40;38.50;;;26.93;;
15553;SDS011;7878;44.632;10.942;2024-02-04T10:31:09;46.38;;;26.58;;
15553;SDS011;7878;44.632;10.942;2024-02-04T10:33:35;39.63;;;26.00;;
15553;SDS011;7878;44.632;10.942;2024-02-04T10:36:02;32.85;;;25.45;;
15553;SDS011;7878;44.632;10.942;2024-02-04T10:38:28;32.90;;;25.50;;
15553;SDS011;7878;44.632;10.942;2024-02-04T10:40:54;39.55;;;30.00;;
15553;SDS011;7878;44.632;10.942;2024-02-04T10:43:20;43.83;;;28.55;;
15553;SDS011;7878;44.632;10.942;2024-02-04T10:45:47;40.78;;;28.17;;
15553;SDS011;7878;44.632;10.942;2024-02-04T10:48:14;44.78;;;28.45;;
15553;SDS011;7878;44.632;10.942;2024-02-04T10:50:44;44.40;;;29.02;;
15553;SDS011;7878;44.632;10.942;2024-02-04T10:53:14;39.88;;;29.48;;
15553;SDS011;7878;44.632;10.942;2024-02-04T10:55:43;40.85;;;30.08;;
15553;SDS011;7878;44.632;10.942;2024-02-04T10:58:12;42.42;;;31.85;;
15553;SDS011;7878;44.632;10.942;2024-02-04T11:00:39;39.30;;;31.65;;
15553;SDS011;7878;44.632;10.942;2024-02-04T11:03:06;39.33;;;32.35;;
15553;SDS011;7878;44.632;10.942;2024-02-04T11:05:33;39.80;;;32.25;;
15553;SDS011;7878;44.632;10.942;2024-02-04T11:08:01;47.13;;;33.10;;
15553;SDS011;7878;44.632;10.942;2024-02-04T11:10:29;42.50;;;32.75;;
15553;SDS011;7878;44.632;10.942;2024-02-04T11:12:56;41.40;;;32.35;;
15553;SDS011;7878;44.632;10.942;2024-02-04T11:15:24;37.13;;;31.30;;
15553;SDS011;7878;44.632;10.942;2024-02-04T11:23:41;39.47;;;29.50;;
15553;SDS011;7878;44.632;10.942;2024-02-04T11:26:10;39.58;;;32.88;;
15553;SDS011;7878;44.632;10.942;2024-02-04T11:28:37;37.97;;;32.17;;
15553;SDS011;7878;44.632;10.942;2024-02-04T11:31:04;41.95;;;32.70;;
15553;SDS011;7878;44.632;10.942;2024-02-04T11:33:30;35.78;;;29.58;;
15553;SDS011;7878;44.632;10.942;2024-02-04T11:36:02;35.95;;;29.15;;
15553;SDS011;7878;44.632;10.942;2024-02-04T11:38:37;33.78;;;29.60;;
15553;SDS011;7878;44.632;10.942;2024-02-04T11:41:03;37.03;;;28.60;;
15553;SDS011;7878;44.632;10.942;2024-02-04T11:43:31;33.80;;;27.98;;
15553;SDS011;7878;44.632;10.942;2024-02-04T11:45:59;38.10;;;29.10;;
15553;SDS011;7878;44.632;10.942;2024-02-04T11:48:34;34.17;;;27.90;;
15553;SDS011;7878;44.632;10.942;2024-02-04T11:51:01;38.58;;;27.38;;
15553;SDS011;7878;44.632;10.942;2024-02-04T11:53:29;33.63;;;29.65;;
15553;SDS011;7878;44.632;10.942;2024-02-04T11:55:57;33.38;;;28.63;;
15553;SDS011;7878;44.632;10.942;2024-02-04T11:58:25;32.97;;;28.17;;
15553;SDS011;7878;44.632;10.942;2024-02-04T12:00:52;34.22;;;28.73;;
15553;SDS011;7878;44.632;10.942;2024-02-04T12:03:29;38.95;;;29.38;;
15553;SDS011;7878;44.632;10.942;2024-02-04T12:05:55;36.13;;;29.67;;
15553;SDS011;7878;44.632;10.942;2024-02-04T12:08:22;32.55;;;28.38;;
15553;SDS011;7878;44.632;10.942;2024-02-04T12:10:49;35.00;;;29.92;;
15553;SDS011;7878;44.632;10.942;2024-02-04T12:13:15;34.90;;;30.05;;
15553;SDS011;7878;44.632;10.942;2024-02-04T12:15:40;35.90;;;31.02;;
15553;SDS011;7878;44.632;10.942;2024-02-04T12:18:07;33.42;;;29.85;;
15553;SDS011;7878;44.632;10.942;2024-02-04T12:20:33;34.60;;;29.73;;
15553;SDS011;7878;44.632;10.942;2024-02-04T12:22:59;34.70;;;30.33;;
15553;SDS011;7878;44.632;10.942;2024-02-04T12:25:27;35.95;;;30.48;;
15553;SDS011;7878;44.632;10.942;2024-02-04T12:27:54;34.38;;;29.20;;
15553;SDS011;7878;44.632;10.942;2024-02-04T12:30:20;37.70;;;31.15;;
15553;SDS011;7878;44.632;10.942;2024-02-04T12:32:55;36.00;;;32.20;;
15553;SDS011;7878;44.632;10.942;2024-02-04T12:35:27;37.70;;;31.05;;
15553;SDS011;7878;44.632;10.942;2024-02-04T12:37:54;38.28;;;31.73;;
15553;SDS011;7878;44.632;10.942;2024-02-04T12:40:28;38.72;;;31.40;;
15553;SDS011;7878;44.632;10.942;2024-02-04T12:42:58;34.15;;;30.50;;
15553;SDS011;7878;44.632;10.942;2024-02-04T12:45:26;33.92;;;30.40;;
15553;SDS011;7878;44.632;10.942;2024-02-04T12:47:53;38.50;;;31.13;;
15553;SDS011;7878;44.632;10.942;2024-02-04T12:50:20;34.97;;;30.55;;
15553;SDS011;7878;44.632;10.942;2024-02-04T12:52:50;36.05;;;29.95;;
15553;SDS011;7878;44.632;10.942;2024-02-04T12:55:30;38.00;;;30.50;;
15553;SDS011;7878;44.632;10.942;2024-02-04T13:00:30;38.40;;;29.65;;
15553;SDS011;7878;44.632;10.942;2024-02-04T13:03:00;33.35;;;28.42;;
15553;SDS011;7878;44.632;10.942;2024-02-04T13:05:26;33.67;;;30.20;;
15553;SDS011;7878;44.632;10.942;2024-02-04T13:07:55;33.13;;;29.65;;
15553;SDS011;7878;44.632;10.942;2024-02-04T13:10:25;31.67;;;28.35;;
15553;SDS011;7878;44.632;10.942;2024-02-04T13:13:24;37.55;;;28.20;;
15553;SDS011;7878;44.632;10.942;2024-02-04T13:15:43;33.22;;;28.10;;
15553;SDS011;7878;44.632;10.942;2024-02-04T13:18:09;33.22;;;28.67;;
15553;SDS011;7878;44.632;10.942;2024-02-04T13:20:36;34.50;;;28.30;;
15553;SDS011;7878;44.632;10.942;2024-02-04T13:23:03;32.22;;;27.40;;
15553;SDS011;7878;44.632;10.942;2024-02-04T13:25:31;36.55;;;27.77;;
15553;SDS011;7878;44.632;10.942;2024-02-04T13:27:57;30.88;;;27.40;;
15553;SDS011;7878;44.632;10.942;2024-02-04T13:30:23;35.42;;;27.42;;
15553;SDS011;7878;44.632;10.942;2024-02-04T13:32:49;34.22;;;28.35;;
15553;SDS011;7878;44.632;10.942;2024-02-04T13:35:15;37.33;;;26.38;;
15553;SDS011;7878;44.632;10.942;2024-02-04T13:37:42;33.70;;;26.30;;
15553;SDS011;7878;44.632;10.942;2024-02-04T13:40:13;31.27;;;26.27;;
15553;SDS011;7878;44.632;10.942;2024-02-04T13:42:39;33.63;;;26.75;;
15553;SDS011;7878;44.632;10.942;2024-02-04T13:45:05;29.83;;;25.20;;
15553;SDS011;7878;44.632;10.942;2024-02-04T13:47:31;41.13;;;26.08;;
15553;SDS011;7878;44.632;10.942;2024-02-04T13:49:57;32.63;;;25.20;;
15553;SDS011;7878;44.632;10.942;2024-02-04T13:52:23;33.20;;;25.48;;
15553;SDS011;7878;44.632;10.942;2024-02-04T13:54:50;33.30;;;25.60;;
15553;SDS011;7878;44.632;10.942;2024-02-04T13:57:15;34.92;;;26.50;;
15553;SDS011;7878;44.632;10.942;2024-02-04T13:59:41;33.38;;;25.50;;
15553;SDS011;7878;44.632;10.942;2024-02-04T14:02:07;31.13;;;24.33;;
15553;SDS011;7878;44.632;10.942;2024-02-04T14:04:34;32.60;;;25.60;;
15553;SDS011;7878;44.632;10.942;2024-02-04T14:07:00;29.58;;;23.90;;
15553;SDS011;7878;44.632;10.942;2024-02-04T14:09:26;30.85;;;24.83;;
15553;SDS011;7878;44.632;10.942;2024-02-04T14:11:52;32.97;;;24.25;;
15553;SDS011;7878;44.632;10.942;2024-02-04T14:14:20;31.88;;;23.88;;
15553;SDS011;7878;44.632;10.942;2024-02-04T14:16:47;28.45;;;24.20;;
15553;SDS011;7878;44.632;10.942;2024-02-04T14:19:13;30.52;;;23.60;;
15553;SDS011;7878;44.632;10.942;2024-02-04T14:21:39;26.33;;;23.23;;
15553;SDS011;7878;44.632;10.942;2024-02-04T14:24:06;34.17;;;23.92;;
15553;SDS011;7878;44.632;10.942;2024-02-04T14:26:31;30.45;;;25.35;;
15553;SDS011;7878;44.632;10.942;2024-02-04T14:28:57;31.25;;;25.75;;
15553;SDS011;7878;44.632;10.942;2024-02-04T14:31:23;32.63;;;24.63;;
15553;SDS011;7878;44.632;10.942;2024-02-04T14:33:49;32.20;;;25.30;;